Topisaw, Mississippi
Current Conditions -  °F | °C
As of 9:53 PM on Sunday 21 Dec 2014 (Local Time) from KMCB Reporting Station
NA  
Wind Chill: 52°   Ceiling: NA
Heat Index: 52°   Visibility: 8mi
Dew Point: 48°   Wind: 6mph
Humidity: 86%   Direction: 110°ESE
Pressure: 29.97"   Gusts: NA
Location:  31.2993°N, 90.4958°W
Report Text: KMCB 220353Z AUTO 11005KT 8SM 11/09 A2997 RMK AO2 SLP148 T01110089 $
Loading
Personal Weather Stations






























Interactive Weather Map New forecast layout! Learn more

10-Day Weather Forecast

Advertisements
Track Severe Weather on mobile